createdAt,value
2022-08-20T00:00:00.414Z,11.5
2022-08-20T00:01:02.082Z,11.5
2022-08-20T00:02:00.715Z,11.5
2022-08-20T00:03:06.983Z,13.1
2022-08-20T00:04:01.617Z,13.1
2022-08-20T00:05:00.246Z,13.1
2022-08-20T00:06:06.751Z,13.1
2022-08-20T00:07:00.282Z,13.1
2022-08-20T00:08:00.503Z,13.1
2022-08-20T00:09:00.400Z,12.0
2022-08-20T00:10:00.309Z,12.0
2022-08-20T00:11:01.105Z,12.0
2022-08-20T00:12:00.263Z,12.0
2022-08-20T00:13:00.745Z,12.0
2022-08-20T00:14:03.951Z,12.3
2022-08-20T00:15:01.314Z,12.3
2022-08-20T00:16:00.780Z,12.3
2022-08-20T00:17:00.572Z,12.3
2022-08-20T00:18:00.549Z,12.3
2022-08-20T00:19:02.276Z,9.6
2022-08-20T00:20:00.416Z,9.6
2022-08-20T00:21:00.248Z,9.6
2022-08-20T00:22:00.250Z,9.6
2022-08-20T00:23:00.674Z,9.6
2022-08-20T00:24:00.384Z,11.9
2022-08-20T00:25:01.488Z,11.9
2022-08-20T00:26:00.349Z,11.9
2022-08-20T00:27:00.341Z,11.9
2022-08-20T00:28:00.956Z,11.9
2022-08-20T00:29:00.272Z,11.2
2022-08-20T00:30:00.666Z,11.2
2022-08-20T00:31:04.018Z,11.2
2022-08-20T00:32:00.342Z,11.2
2022-08-20T00:33:04.541Z,12.3
2022-08-20T00:34:00.283Z,12.3
2022-08-20T00:35:00.333Z,12.3
2022-08-20T00:36:00.328Z,12.3
2022-08-20T00:37:00.324Z,12.3
2022-08-20T00:38:01.001Z,12.3
2022-08-20T00:39:00.437Z,11.3
2022-08-20T00:40:00.439Z,11.3
2022-08-20T00:41:01.074Z,11.3
2022-08-20T00:42:00.806Z,11.3
2022-08-20T00:43:02.551Z,11.3
2022-08-20T00:44:15.140Z,11.5
2022-08-20T00:45:00.277Z,11.5
2022-08-20T00:46:04.493Z,11.5
2022-08-20T00:47:00.339Z,11.5
2022-08-20T00:48:00.518Z,11.5
2022-08-20T00:49:01.653Z,14.7
2022-08-20T00:50:00.468Z,14.7
2022-08-20T00:51:12.921Z,14.7
2022-08-20T00:52:05.885Z,14.7
2022-08-20T00:53:02.937Z,13.6
2022-08-20T00:54:06.016Z,13.6
2022-08-20T00:55:02.704Z,13.6
2022-08-20T00:56:00.717Z,13.6
2022-08-20T00:57:04.965Z,13.6
2022-08-20T00:58:05.667Z,13.9
2022-08-20T00:59:01.316Z,13.9
2022-08-20T01:00:03.901Z,13.9
2022-08-20T01:01:00.370Z,13.9
2022-08-20T01:02:02.179Z,13.9
2022-08-20T01:03:00.613Z,13.9
2022-08-20T01:04:00.266Z,12.4
2022-08-20T01:05:00.408Z,12.4
2022-08-20T01:06:00.365Z,12.4
2022-08-20T01:07:03.348Z,12.4
2022-08-20T01:08:00.345Z,12.4
2022-08-20T01:09:00.396Z,14.3
2022-08-20T01:10:19.322Z,14.3
2022-08-20T01:11:00.226Z,14.3
2022-08-20T01:12:00.770Z,14.3
2022-08-20T01:13:05.012Z,13.4
2022-08-20T01:14:04.866Z,13.4
2022-08-20T01:15:01.590Z,13.4
2022-08-20T01:16:02.527Z,13.4
2022-08-20T01:17:05.158Z,13.4
2022-08-20T01:18:01.469Z,13.4
2022-08-20T01:19:00.903Z,13.7
2022-08-20T01:20:05.817Z,13.7
2022-08-20T01:21:03.795Z,13.7
2022-08-20T01:22:03.519Z,13.7
2022-08-20T01:23:16.265Z,14.5
2022-08-20T01:24:10.578Z,14.5
2022-08-20T01:25:06.911Z,14.5
2022-08-20T01:26:10.075Z,14.5
2022-08-20T01:27:03.411Z,14.5
2022-08-20T01:28:00.998Z,14.5
2022-08-20T01:29:06.272Z,15.4
2022-08-20T01:30:01.073Z,15.4
2022-08-20T01:31:01.301Z,15.4
2022-08-20T01:32:00.344Z,15.4
2022-08-20T01:33:00.403Z,15.4
2022-08-20T01:34:02.406Z,13.9
2022-08-20T01:35:00.378Z,13.9
2022-08-20T01:36:01.230Z,13.9
2022-08-20T01:37:00.326Z,13.9
2022-08-20T01:38:00.283Z,13.9
2022-08-20T01:39:05.562Z,15.4
2022-08-20T01:40:01.909Z,15.4
2022-08-20T01:41:28.039Z,15.4
2022-08-20T01:42:13.632Z,15.4
2022-08-20T01:43:00.641Z,15.4
2022-08-20T01:44:00.542Z,12.7
2022-08-20T01:45:00.535Z,12.7
2022-08-20T01:46:00.406Z,12.7
2022-08-20T01:47:10.213Z,12.7
2022-08-20T01:48:00.300Z,12.7
2022-08-20T01:49:07.117Z,15.3
2022-08-20T01:50:09.334Z,15.3
2022-08-20T01:51:08.313Z,15.3
2022-08-20T01:52:06.068Z,15.3
2022-08-20T01:53:10.300Z,14.6
2022-08-20T01:54:00.519Z,14.6
2022-08-20T01:55:00.838Z,14.6
2022-08-20T01:56:03.859Z,14.6
2022-08-20T01:57:04.076Z,14.6
2022-08-20T01:58:00.494Z,14.6
2022-08-20T01:59:04.846Z,14.4
2022-08-20T02:00:01.037Z,14.4
2022-08-20T02:01:00.819Z,14.4
2022-08-20T02:02:00.707Z,14.4
2022-08-20T02:03:00.631Z,14.4
2022-08-20T02:04:02.158Z,13.2
2022-08-20T02:05:00.334Z,13.2
2022-08-20T02:06:00.650Z,13.2
2022-08-20T02:07:02.960Z,13.2
2022-08-20T02:08:01.218Z,13.2
2022-08-20T02:09:01.815Z,15.2
2022-08-20T02:10:00.520Z,15.2
2022-08-20T02:11:00.446Z,15.2
2022-08-20T02:12:01.016Z,15.2
2022-08-20T02:13:01.307Z,15.2
2022-08-20T02:14:03.536Z,14.9
2022-08-20T02:15:00.493Z,14.9
2022-08-20T02:16:00.268Z,14.9
2022-08-20T02:17:00.337Z,14.9
2022-08-20T02:18:03.907Z,13.9
2022-08-20T02:19:06.361Z,13.9
2022-08-20T02:20:05.694Z,13.9
2022-08-20T02:21:00.981Z,13.9
2022-08-20T02:22:07.672Z,13.9
2022-08-20T02:23:00.243Z,13.9
2022-08-20T02:24:00.242Z,21.1
2022-08-20T02:25:00.867Z,21.1
2022-08-20T02:26:00.320Z,21.1
2022-08-20T02:27:00.261Z,21.1
2022-08-20T02:28:05.922Z,23.6
2022-08-20T02:29:01.255Z,23.6
2022-08-20T02:30:00.825Z,23.6
2022-08-20T02:31:00.299Z,23.6
2022-08-20T02:32:25.029Z,23.6
2022-08-20T02:33:03.373Z,21.0
2022-08-20T02:34:14.808Z,21.0
2022-08-20T02:35:03.012Z,21.0
2022-08-20T02:36:00.633Z,21.0
2022-08-20T02:37:01.878Z,21.0
2022-08-20T02:38:00.822Z,21.0
2022-08-20T02:39:00.225Z,23.4
2022-08-20T02:40:00.958Z,23.4
2022-08-20T02:41:00.992Z,23.4
2022-08-20T02:42:00.385Z,23.4
2022-08-20T02:43:01.569Z,23.4
2022-08-20T02:44:00.759Z,21.9
2022-08-20T02:45:00.807Z,21.9
2022-08-20T02:46:00.895Z,21.9
2022-08-20T02:47:00.511Z,21.9
2022-08-20T02:48:00.350Z,21.9
2022-08-20T02:49:00.353Z,23.3
2022-08-20T02:50:00.463Z,23.3
2022-08-20T02:51:04.414Z,23.3
2022-08-20T02:52:00.570Z,23.3
2022-08-20T02:53:00.233Z,23.3
2022-08-20T02:54:00.247Z,26.6
2022-08-20T02:55:00.258Z,26.6
2022-08-20T02:56:00.325Z,26.6
2022-08-20T02:57:01.479Z,26.6
2022-08-20T02:58:00.584Z,26.6
2022-08-20T02:59:00.318Z,27.8
2022-08-20T03:00:00.422Z,27.8
2022-08-20T03:01:01.907Z,27.8
2022-08-20T03:02:01.132Z,27.8
2022-08-20T03:03:00.602Z,27.8
2022-08-20T03:04:00.277Z,28.8
2022-08-20T03:05:00.362Z,28.8
2022-08-20T03:06:00.365Z,28.8
2022-08-20T03:07:00.321Z,28.8
2022-08-20T03:08:00.302Z,28.8
2022-08-20T03:09:00.442Z,30.8
2022-08-20T03:10:00.241Z,30.8
2022-08-20T03:11:00.606Z,30.8
2022-08-20T03:12:00.268Z,30.8
2022-08-20T03:13:01.027Z,30.8
2022-08-20T03:14:00.396Z,31.2
2022-08-20T03:15:00.543Z,31.2
2022-08-20T03:16:01.268Z,31.2
2022-08-20T03:17:00.845Z,31.2
2022-08-20T03:18:00.490Z,31.2
2022-08-20T03:19:00.302Z,31.5
2022-08-20T03:20:00.401Z,31.5
2022-08-20T03:21:00.531Z,31.5
2022-08-20T03:22:00.246Z,31.5
2022-08-20T03:23:00.640Z,31.5
2022-08-20T03:24:00.291Z,33.9
2022-08-20T03:25:00.526Z,33.9
2022-08-20T03:26:01.978Z,33.9
2022-08-20T03:27:00.235Z,33.9
2022-08-20T03:28:00.825Z,33.9
2022-08-20T03:29:00.403Z,34.2
2022-08-20T03:30:00.331Z,34.2
2022-08-20T03:31:01.150Z,34.2
2022-08-20T03:32:00.977Z,34.2
2022-08-20T03:33:00.321Z,34.2
2022-08-20T03:34:00.278Z,35.8
2022-08-20T03:35:00.333Z,35.8
2022-08-20T03:36:00.245Z,35.8
2022-08-20T03:37:00.315Z,35.8
2022-08-20T03:38:00.608Z,35.8
2022-08-20T03:39:03.452Z,34.9
2022-08-20T03:40:03.064Z,34.9
2022-08-20T03:41:01.450Z,34.9
2022-08-20T03:42:00.233Z,34.9
2022-08-20T03:43:00.629Z,34.9
2022-08-20T03:44:00.278Z,36.3
2022-08-20T03:45:00.265Z,36.3
2022-08-20T03:46:00.350Z,36.3
2022-08-20T03:47:02.783Z,36.3
2022-08-20T03:48:01.215Z,35.6
2022-08-20T03:49:00.908Z,35.6
2022-08-20T03:50:03.445Z,35.6
2022-08-20T03:51:00.267Z,35.6
2022-08-20T03:52:00.937Z,35.6
2022-08-20T03:53:00.475Z,35.6
2022-08-20T03:54:00.233Z,37.0
2022-08-20T03:55:00.296Z,37.0
2022-08-20T03:56:03.720Z,37.0
2022-08-20T03:57:01.213Z,37.0
2022-08-20T03:58:03.594Z,37.8
2022-08-20T03:59:00.509Z,37.8
2022-08-20T04:00:00.733Z,37.8
2022-08-20T04:01:00.734Z,37.8
2022-08-20T04:02:00.311Z,37.8
2022-08-20T04:03:00.329Z,37.8
2022-08-20T04:04:00.392Z,37.6
2022-08-20T04:05:00.305Z,37.6
2022-08-20T04:06:00.559Z,37.6
2022-08-20T04:07:08.482Z,37.6
2022-08-20T04:08:02.885Z,37.7
2022-08-20T04:09:00.303Z,37.7
2022-08-20T04:10:06.148Z,37.7
2022-08-20T04:11:00.310Z,37.7
2022-08-20T04:12:00.287Z,37.7
2022-08-20T04:13:00.539Z,38.8
2022-08-20T04:14:00.285Z,38.8
2022-08-20T04:15:00.229Z,38.8
2022-08-20T04:16:02.266Z,38.8
2022-08-20T04:17:04.369Z,38.8
2022-08-20T04:18:00.885Z,41.1
2022-08-20T04:19:01.784Z,41.1
2022-08-20T04:20:01.612Z,41.1
2022-08-20T04:21:00.225Z,41.1
2022-08-20T04:22:00.307Z,41.1
2022-08-20T04:23:00.330Z,41.1
2022-08-20T04:24:02.893Z,39.8
2022-08-20T04:25:00.231Z,39.8
2022-08-20T04:26:00.298Z,39.8
2022-08-20T04:27:00.872Z,39.8
2022-08-20T04:28:02.153Z,43.0
2022-08-20T04:29:00.314Z,43.0
2022-08-20T04:30:00.594Z,43.0
2022-08-20T04:31:00.389Z,43.0
2022-08-20T04:32:00.640Z,43.0
2022-08-20T04:33:00.868Z,42.0
2022-08-20T04:34:01.713Z,42.0
2022-08-20T04:35:00.275Z,42.0
2022-08-20T04:36:00.266Z,42.0
2022-08-20T04:37:00.267Z,42.0
2022-08-20T04:38:02.829Z,41.3
2022-08-20T04:39:00.405Z,41.3
2022-08-20T04:40:04.630Z,41.3
2022-08-20T04:41:00.315Z,41.3
2022-08-20T04:42:00.259Z,41.3
2022-08-20T04:43:01.158Z,41.9
2022-08-20T04:44:00.234Z,41.9
2022-08-20T04:45:00.251Z,41.9
2022-08-20T04:46:04.870Z,41.9
2022-08-20T04:47:00.240Z,41.9
2022-08-20T04:48:02.575Z,40.6
2022-08-20T04:49:00.291Z,40.6
2022-08-20T04:50:00.420Z,40.6
2022-08-20T04:51:00.588Z,40.6
2022-08-20T04:52:00.274Z,40.6
2022-08-20T04:53:01.733Z,41.9
2022-08-20T04:54:00.862Z,41.9
2022-08-20T04:55:00.806Z,41.9
2022-08-20T04:56:01.104Z,41.9
2022-08-20T04:57:00.300Z,41.9
2022-08-20T04:58:05.327Z,39.3
2022-08-20T04:59:00.708Z,39.3
2022-08-20T05:00:00.239Z,39.3
2022-08-20T05:01:05.054Z,39.3
2022-08-20T05:02:00.235Z,39.3
2022-08-20T05:03:00.464Z,41.5
2022-08-20T05:04:00.488Z,41.5
2022-08-20T05:05:00.343Z,41.5
2022-08-20T05:06:00.557Z,41.5
2022-08-20T05:07:00.232Z,41.5
2022-08-20T05:08:01.070Z,38.6
2022-08-20T05:09:00.315Z,38.6
2022-08-20T05:10:02.559Z,38.6
2022-08-20T05:11:33.088Z,38.6
2022-08-20T05:12:00.245Z,38.6
2022-08-20T05:13:00.248Z,37.8
2022-08-20T05:14:00.719Z,37.8
2022-08-20T05:15:00.645Z,37.8
2022-08-20T05:16:00.952Z,37.8
2022-08-20T05:17:02.531Z,37.8
2022-08-20T05:18:01.744Z,39.0
2022-08-20T05:19:00.226Z,39.0
2022-08-20T05:20:00.282Z,39.0
2022-08-20T05:21:01.565Z,39.0
2022-08-20T05:22:00.503Z,39.0
2022-08-20T05:23:01.231Z,36.7
2022-08-20T05:24:00.487Z,36.7
2022-08-20T05:25:00.322Z,36.7
2022-08-20T05:26:00.736Z,36.7
2022-08-20T05:27:00.374Z,36.7
2022-08-20T05:28:04.200Z,38.5
2022-08-20T05:29:00.624Z,38.5
2022-08-20T05:30:03.923Z,38.5
2022-08-20T05:31:01.264Z,38.5
2022-08-20T05:32:00.502Z,38.5
2022-08-20T05:33:00.631Z,36.9
2022-08-20T05:34:05.444Z,36.9
2022-08-20T05:35:01.970Z,36.9
2022-08-20T05:36:00.314Z,36.9
2022-08-20T05:37:01.704Z,36.9
2022-08-20T05:38:01.306Z,39.9
2022-08-20T05:39:00.477Z,39.9
2022-08-20T05:40:00.381Z,39.9
2022-08-20T05:41:00.332Z,39.9
2022-08-20T05:42:00.231Z,39.9
2022-08-20T05:43:00.439Z,40.1
2022-08-20T05:44:00.288Z,40.1
2022-08-20T05:45:00.250Z,40.1
2022-08-20T05:46:00.283Z,40.1
2022-08-20T05:47:00.275Z,40.1
2022-08-20T05:48:04.830Z,41.1
2022-08-20T05:49:00.374Z,41.1
2022-08-20T05:50:02.254Z,41.1
2022-08-20T05:51:00.253Z,41.1
2022-08-20T05:52:00.256Z,41.1
2022-08-20T05:53:00.723Z,43.3
2022-08-20T05:54:00.269Z,43.3
2022-08-20T05:55:00.533Z,43.3
2022-08-20T05:56:00.260Z,43.3
2022-08-20T05:57:00.221Z,43.3
2022-08-20T05:58:02.693Z,38.4
2022-08-20T05:59:00.432Z,38.4
2022-08-20T06:00:01.322Z,38.4
2022-08-20T06:01:00.519Z,38.4
2022-08-20T06:02:00.220Z,38.4
2022-08-20T06:03:00.671Z,38.7
2022-08-20T06:04:00.924Z,38.7
2022-08-20T06:05:00.259Z,38.7
2022-08-20T06:06:00.332Z,38.7
2022-08-20T06:07:03.085Z,38.7
2022-08-20T06:08:07.743Z,41.2
2022-08-20T06:09:00.262Z,41.2
2022-08-20T06:10:00.546Z,41.2
2022-08-20T06:11:00.431Z,41.2
2022-08-20T06:12:02.933Z,41.2
2022-08-20T06:13:00.620Z,38.0
2022-08-20T06:14:00.277Z,38.0
2022-08-20T06:15:00.236Z,38.0
2022-08-20T06:16:00.576Z,38.0
2022-08-20T06:17:13.328Z,38.0
2022-08-20T06:18:01.366Z,38.5
2022-08-20T06:19:02.775Z,38.5
2022-08-20T06:20:03.756Z,38.5
2022-08-20T06:21:00.275Z,38.5
2022-08-20T06:22:01.465Z,38.5
2022-08-20T06:23:00.253Z,38.5
2022-08-20T06:24:02.418Z,38.5
2022-08-20T06:25:01.906Z,38.5
2022-08-20T06:26:00.370Z,38.5
2022-08-20T06:27:02.593Z,38.5
2022-08-20T06:28:01.957Z,35.4
2022-08-20T06:29:01.645Z,35.4
2022-08-20T06:30:00.248Z,35.4
2022-08-20T06:31:00.421Z,35.4
2022-08-20T06:32:00.447Z,35.4
2022-08-20T06:33:00.285Z,35.0
2022-08-20T06:34:00.260Z,35.0
2022-08-20T06:35:01.771Z,35.0
2022-08-20T06:36:00.236Z,35.0
2022-08-20T06:37:00.236Z,35.0
2022-08-20T06:38:00.272Z,35.4
2022-08-20T06:39:00.245Z,35.4
2022-08-20T06:40:05.043Z,35.4
2022-08-20T06:41:00.266Z,35.4
2022-08-20T06:42:00.232Z,35.4
2022-08-20T06:43:00.333Z,36.3
2022-08-20T06:44:00.242Z,36.3
2022-08-20T06:45:00.599Z,36.3
2022-08-20T06:46:00.223Z,36.3
2022-08-20T06:47:01.891Z,36.3
2022-08-20T06:48:05.268Z,35.7
2022-08-20T06:49:01.020Z,35.7
2022-08-20T06:50:00.309Z,35.7
2022-08-20T06:51:00.708Z,35.7
2022-08-20T06:52:00.279Z,35.7
2022-08-20T06:53:00.231Z,36.7
2022-08-20T06:54:00.366Z,36.7
2022-08-20T06:55:00.220Z,36.7
2022-08-20T06:56:00.774Z,36.7
2022-08-20T06:57:02.471Z,36.7
2022-08-20T06:58:05.865Z,39.4
2022-08-20T06:59:00.244Z,39.4
2022-08-20T07:00:00.256Z,39.4
2022-08-20T07:01:04.502Z,39.4
2022-08-20T07:02:00.300Z,39.4
2022-08-20T07:03:01.563Z,39.4
2022-08-20T07:04:00.256Z,39.4
2022-08-20T07:05:00.589Z,39.4
2022-08-20T07:06:00.246Z,39.4
2022-08-20T07:07:00.298Z,39.4
2022-08-20T07:08:01.354Z,40.0
2022-08-20T07:09:00.291Z,40.0
2022-08-20T07:10:06.757Z,40.0
2022-08-20T07:11:00.865Z,40.0
2022-08-20T07:12:00.279Z,40.0
2022-08-20T07:13:00.321Z,42.5
2022-08-20T07:14:00.701Z,42.5
2022-08-20T07:15:00.272Z,42.5
2022-08-20T07:16:00.215Z,42.5
2022-08-20T07:17:01.770Z,42.5
2022-08-20T07:18:03.073Z,39.5
2022-08-20T07:19:00.234Z,39.5
2022-08-20T07:20:12.336Z,39.5
2022-08-20T07:21:00.265Z,39.5
2022-08-20T07:22:00.267Z,39.5
2022-08-20T07:23:00.911Z,36.6
2022-08-20T07:24:00.383Z,36.6
2022-08-20T07:25:00.260Z,36.6
2022-08-20T07:26:00.265Z,36.6
2022-08-20T07:27:00.233Z,36.6
2022-08-20T07:28:03.791Z,37.7
2022-08-20T07:29:00.429Z,37.7
2022-08-20T07:30:00.566Z,37.7
2022-08-20T07:31:00.501Z,37.7
2022-08-20T07:32:00.303Z,37.7
2022-08-20T07:33:00.253Z,38.0
2022-08-20T07:34:00.303Z,38.0
2022-08-20T07:35:00.274Z,38.0
2022-08-20T07:36:01.681Z,38.0
2022-08-20T07:37:00.220Z,38.0
2022-08-20T07:38:00.318Z,35.2
2022-08-20T07:39:00.576Z,35.2
2022-08-20T07:40:00.386Z,35.2
2022-08-20T07:41:04.203Z,35.2
2022-08-20T07:42:00.260Z,35.2
2022-08-20T07:43:00.610Z,37.5
2022-08-20T07:44:00.494Z,37.5
2022-08-20T07:45:00.233Z,37.5
2022-08-20T07:46:02.640Z,37.5
2022-08-20T07:47:00.335Z,37.5
2022-08-20T07:48:10.027Z,37.2
2022-08-20T07:49:00.244Z,37.2
2022-08-20T07:50:00.403Z,37.2
2022-08-20T07:51:03.391Z,37.2
2022-08-20T07:52:00.223Z,37.2
2022-08-20T07:53:00.414Z,30.6
2022-08-20T07:54:00.258Z,30.6
2022-08-20T07:55:10.460Z,30.6
2022-08-20T07:56:02.000Z,30.6
2022-08-20T07:57:01.263Z,30.6
2022-08-20T07:58:07.761Z,32.2
2022-08-20T07:59:00.271Z,32.2
2022-08-20T08:00:00.631Z,32.2
2022-08-20T08:01:00.828Z,32.2
2022-08-20T08:02:00.330Z,32.2
2022-08-20T08:03:00.690Z,34.9
2022-08-20T08:04:00.392Z,34.9
2022-08-20T08:05:00.464Z,34.9
2022-08-20T08:06:00.362Z,34.9
2022-08-20T08:07:00.298Z,34.9
2022-08-20T08:08:04.581Z,32.2
2022-08-20T08:09:05.117Z,32.2
2022-08-20T08:10:04.136Z,32.2
2022-08-20T08:11:02.437Z,32.2
2022-08-20T08:12:01.660Z,32.2
2022-08-20T08:13:04.593Z,32.3
2022-08-20T08:14:01.725Z,32.3
2022-08-20T08:15:00.902Z,32.3
2022-08-20T08:16:02.814Z,32.3
2022-08-20T08:17:03.445Z,32.3
2022-08-20T08:18:07.081Z,37.4
2022-08-20T08:19:01.071Z,37.4
2022-08-20T08:20:00.336Z,37.4
2022-08-20T08:21:00.258Z,37.4
2022-08-20T08:22:00.383Z,37.4
2022-08-20T08:23:00.246Z,37.4
2022-08-20T08:24:00.409Z,31.1
2022-08-20T08:25:00.279Z,31.1
2022-08-20T08:26:00.671Z,31.1
2022-08-20T08:27:00.249Z,31.1
2022-08-20T08:28:00.262Z,31.1
2022-08-20T08:29:00.239Z,29.0
2022-08-20T08:30:00.934Z,29.0
2022-08-20T08:31:00.253Z,29.0
2022-08-20T08:32:01.493Z,29.0
2022-08-20T08:33:00.224Z,29.0
2022-08-20T08:34:00.531Z,30.5
2022-08-20T08:35:04.598Z,30.5
2022-08-20T08:36:04.699Z,30.5
2022-08-20T08:37:00.324Z,30.5
2022-08-20T08:38:00.291Z,30.5
2022-08-20T08:39:00.276Z,27.8
2022-08-20T08:40:00.341Z,27.8
2022-08-20T08:41:12.991Z,27.8
2022-08-20T08:42:01.281Z,27.8
2022-08-20T08:43:02.738Z,30.9
2022-08-20T08:44:13.069Z,30.9
2022-08-20T08:45:00.690Z,30.9
2022-08-20T08:46:05.199Z,30.9
2022-08-20T08:47:12.558Z,30.9
2022-08-20T08:48:00.393Z,30.9
2022-08-20T08:49:00.400Z,29.0
2022-08-20T08:50:01.388Z,29.0
2022-08-20T08:51:02.752Z,29.0
2022-08-20T08:52:05.881Z,29.0
2022-08-20T08:53:01.730Z,29.0
2022-08-20T08:54:06.469Z,30.0
2022-08-20T08:55:03.901Z,30.0
2022-08-20T08:56:00.626Z,30.0
2022-08-20T08:57:01.225Z,30.0
2022-08-20T08:58:04.448Z,30.0
2022-08-20T08:59:04.315Z,30.9
2022-08-20T09:00:08.780Z,30.9
2022-08-20T09:01:09.815Z,30.9
2022-08-20T09:02:01.084Z,30.9
2022-08-20T09:03:04.580Z,29.0
2022-08-20T09:04:02.237Z,29.0
2022-08-20T09:05:02.355Z,29.0
2022-08-20T09:06:01.002Z,29.0
2022-08-20T09:07:02.969Z,29.0
2022-08-20T09:08:02.414Z,29.0
2022-08-20T09:09:03.632Z,27.6
2022-08-20T09:10:01.115Z,27.6
2022-08-20T09:11:04.535Z,27.6
2022-08-20T09:12:07.805Z,27.6
2022-08-20T09:13:00.339Z,27.6
2022-08-20T09:14:00.268Z,31.1
2022-08-20T09:15:00.328Z,31.1
2022-08-20T09:16:00.374Z,31.1
2022-08-20T09:17:00.484Z,31.1
2022-08-20T09:18:00.238Z,31.1
2022-08-20T09:19:00.237Z,26.9
2022-08-20T09:20:00.315Z,26.9
2022-08-20T09:21:00.554Z,26.9
2022-08-20T09:22:06.168Z,26.9
2022-08-20T09:23:00.400Z,26.9
2022-08-20T09:24:00.341Z,27.3
2022-08-20T09:25:00.381Z,27.3
2022-08-20T09:26:00.587Z,27.3
2022-08-20T09:27:00.269Z,27.3
2022-08-20T09:28:00.336Z,27.3
2022-08-20T09:29:00.239Z,28.7
2022-08-20T09:30:00.401Z,28.7
2022-08-20T09:31:01.076Z,28.7
2022-08-20T09:32:09.505Z,28.7
2022-08-20T09:33:00.594Z,28.7
2022-08-20T09:34:00.295Z,27.1
2022-08-20T09:35:00.746Z,27.1
2022-08-20T09:36:00.376Z,27.1
2022-08-20T09:37:00.243Z,27.1
2022-08-20T09:38:00.510Z,27.1
2022-08-20T09:39:02.768Z,26.0
2022-08-20T09:40:00.464Z,26.0
2022-08-20T09:41:00.251Z,26.0
2022-08-20T09:42:18.746Z,26.0
2022-08-20T09:43:00.380Z,26.0
2022-08-20T09:44:01.049Z,28.3
2022-08-20T09:45:00.521Z,28.3
2022-08-20T09:46:00.229Z,28.3
2022-08-20T09:47:00.384Z,28.3
2022-08-20T09:48:00.655Z,28.3
2022-08-20T09:49:00.254Z,25.3
2022-08-20T09:50:00.270Z,25.3
2022-08-20T09:51:01.294Z,25.3
2022-08-20T09:52:00.485Z,25.3
2022-08-20T09:53:02.958Z,25.3
2022-08-20T09:54:00.337Z,24.9
2022-08-20T09:55:04.069Z,24.9
2022-08-20T09:56:00.429Z,24.9
2022-08-20T09:57:04.516Z,24.9
2022-08-20T09:58:03.157Z,24.9
2022-08-20T09:59:02.942Z,25.0
2022-08-20T10:00:04.750Z,25.0
2022-08-20T10:01:06.469Z,25.0
2022-08-20T10:02:00.311Z,25.0
2022-08-20T10:03:00.260Z,25.0
2022-08-20T10:04:00.251Z,24.6
2022-08-20T10:05:00.280Z,24.6
2022-08-20T10:06:00.288Z,24.6
2022-08-20T10:07:00.247Z,24.6
2022-08-20T10:08:03.555Z,24.6
2022-08-20T10:09:02.150Z,25.8
2022-08-20T10:10:01.469Z,25.8
2022-08-20T10:11:00.267Z,25.8
2022-08-20T10:12:00.236Z,25.8
2022-08-20T10:13:00.570Z,25.8
2022-08-20T10:14:00.408Z,24.9
2022-08-20T10:15:00.377Z,24.9
2022-08-20T10:16:00.224Z,24.9
2022-08-20T10:17:01.533Z,24.9
2022-08-20T10:18:02.840Z,24.9
2022-08-20T10:19:01.050Z,25.0
2022-08-20T10:20:00.225Z,25.0
2022-08-20T10:21:00.294Z,25.0
2022-08-20T10:22:00.695Z,25.0
2022-08-20T10:23:01.265Z,25.0
2022-08-20T10:24:00.230Z,24.4
2022-08-20T10:25:00.600Z,24.4
2022-08-20T10:26:00.224Z,24.4
2022-08-20T10:27:00.776Z,24.4
2022-08-20T10:28:00.267Z,24.4
2022-08-20T10:29:00.301Z,25.8
2022-08-20T10:30:00.501Z,25.8
2022-08-20T10:31:00.398Z,25.8
2022-08-20T10:32:11.514Z,25.8
2022-08-20T10:33:00.605Z,25.8
2022-08-20T10:34:00.284Z,25.4
2022-08-20T10:35:00.690Z,25.4
2022-08-20T10:36:13.995Z,25.4
2022-08-20T10:37:00.267Z,25.4
2022-08-20T10:38:00.301Z,25.4
2022-08-20T10:39:00.243Z,25.3
2022-08-20T10:40:02.015Z,25.3
2022-08-20T10:41:00.395Z,25.3
2022-08-20T10:42:00.557Z,25.3
2022-08-20T10:43:00.262Z,25.3
2022-08-20T10:44:00.284Z,26.9
2022-08-20T10:45:00.303Z,26.9
2022-08-20T10:46:00.487Z,26.9
2022-08-20T10:47:19.714Z,26.9
2022-08-20T10:48:00.683Z,26.9
2022-08-20T10:49:00.237Z,26.1
2022-08-20T10:50:04.475Z,26.1
2022-08-20T10:51:00.228Z,26.1
2022-08-20T10:52:00.287Z,26.1
2022-08-20T10:53:00.315Z,26.1
2022-08-20T10:54:00.234Z,25.4
2022-08-20T10:55:00.431Z,25.4
2022-08-20T10:56:00.241Z,25.4
2022-08-20T10:57:01.008Z,25.4
2022-08-20T10:58:00.252Z,25.4
2022-08-20T10:59:00.368Z,26.1
2022-08-20T11:00:00.573Z,26.1
2022-08-20T11:01:00.242Z,26.1
2022-08-20T11:02:00.321Z,26.1
2022-08-20T11:03:01.081Z,26.1
2022-08-20T11:04:00.257Z,27.4
2022-08-20T11:05:00.541Z,27.4
2022-08-20T11:06:00.530Z,27.4
2022-08-20T11:07:12.966Z,27.4
2022-08-20T11:08:02.193Z,27.4
2022-08-20T11:09:00.271Z,26.0
2022-08-20T11:10:00.714Z,26.0
2022-08-20T11:11:00.677Z,26.0
2022-08-20T11:12:00.228Z,26.0
2022-08-20T11:13:02.400Z,26.0
2022-08-20T11:14:00.304Z,26.1
2022-08-20T11:15:00.317Z,26.1
2022-08-20T11:16:01.150Z,26.1
2022-08-20T11:17:01.393Z,26.1
2022-08-20T11:18:00.602Z,26.1
2022-08-20T11:19:00.241Z,27.2
2022-08-20T11:20:02.030Z,27.2
2022-08-20T11:21:00.244Z,27.2
2022-08-20T11:22:00.269Z,27.2
2022-08-20T11:23:00.429Z,27.2
2022-08-20T11:24:02.967Z,28.7
2022-08-20T11:25:00.928Z,28.7
2022-08-20T11:26:00.326Z,28.7
2022-08-20T11:27:01.140Z,28.7
2022-08-20T11:28:00.259Z,28.7
2022-08-20T11:29:00.240Z,29.1
2022-08-20T11:30:00.288Z,29.1
2022-08-20T11:31:00.865Z,29.1
2022-08-20T11:32:00.430Z,29.1
2022-08-20T11:33:01.349Z,29.1
2022-08-20T11:34:00.240Z,27.1
2022-08-20T11:35:00.294Z,27.1
2022-08-20T11:36:00.227Z,27.1
2022-08-20T11:37:00.540Z,27.1
2022-08-20T11:38:01.411Z,27.1
2022-08-20T11:39:00.259Z,27.8
2022-08-20T11:40:00.487Z,27.8
2022-08-20T11:41:00.259Z,27.8
2022-08-20T11:42:00.351Z,27.8
2022-08-20T11:43:15.867Z,27.8
2022-08-20T11:44:20.976Z,28.6
2022-08-20T11:45:00.304Z,28.6
2022-08-20T11:46:00.254Z,28.6
2022-08-20T11:47:02.750Z,28.6
2022-08-20T11:48:00.253Z,28.6
2022-08-20T11:49:00.616Z,27.1
2022-08-20T11:50:03.037Z,27.1
2022-08-20T11:51:00.286Z,27.1
2022-08-20T11:52:00.589Z,27.1
2022-08-20T11:53:01.553Z,27.1
2022-08-20T11:54:00.237Z,31.4
2022-08-20T11:55:00.802Z,31.4
2022-08-20T11:56:00.741Z,31.4
2022-08-20T11:57:00.230Z,31.4
2022-08-20T11:58:01.105Z,31.4
2022-08-20T11:59:00.261Z,28.7
2022-08-20T12:00:03.647Z,28.7
2022-08-20T12:01:00.292Z,28.7
2022-08-20T12:02:03.066Z,28.7
2022-08-20T12:03:01.607Z,28.7
2022-08-20T12:04:00.224Z,28.3
2022-08-20T12:05:00.352Z,28.3
2022-08-20T12:06:00.474Z,28.3
2022-08-20T12:07:07.818Z,28.3
2022-08-20T12:08:00.689Z,28.3
2022-08-20T12:09:00.290Z,28.4
2022-08-20T12:10:00.346Z,28.4
2022-08-20T12:11:01.700Z,28.4
2022-08-20T12:12:00.232Z,28.4
2022-08-20T12:13:00.360Z,28.4
2022-08-20T12:14:00.271Z,27.6
2022-08-20T12:15:00.309Z,27.6
2022-08-20T12:16:00.708Z,27.6
2022-08-20T12:17:11.099Z,27.6
2022-08-20T12:18:00.703Z,27.6
2022-08-20T12:19:00.222Z,28.4
2022-08-20T12:20:04.660Z,28.4
2022-08-20T12:21:00.386Z,28.4
2022-08-20T12:22:00.256Z,28.4
2022-08-20T12:23:00.263Z,28.4
2022-08-20T12:24:00.229Z,26.7
2022-08-20T12:25:00.641Z,26.7
2022-08-20T12:26:00.261Z,26.7
2022-08-20T12:27:12.994Z,26.7
2022-08-20T12:28:00.421Z,26.7
2022-08-20T12:29:00.330Z,25.6
2022-08-20T12:30:05.204Z,25.6
2022-08-20T12:31:00.231Z,25.6
2022-08-20T12:32:00.278Z,25.6
2022-08-20T12:33:00.255Z,25.6
2022-08-20T12:34:00.315Z,26.6
2022-08-20T12:35:00.601Z,26.6
2022-08-20T12:36:00.300Z,26.6
2022-08-20T12:37:04.363Z,26.6
2022-08-20T12:38:03.739Z,26.6
2022-08-20T12:39:00.231Z,27.1
2022-08-20T12:40:03.059Z,27.1
2022-08-20T12:41:00.281Z,27.1
2022-08-20T12:42:00.751Z,27.1
2022-08-20T12:43:01.678Z,27.1
2022-08-20T12:44:00.265Z,26.0
2022-08-20T12:45:00.536Z,26.0
2022-08-20T12:46:00.278Z,26.0
2022-08-20T12:47:10.134Z,26.0
2022-08-20T12:48:04.112Z,26.0
2022-08-20T12:49:00.233Z,25.3
2022-08-20T12:50:04.982Z,25.3
2022-08-20T12:51:00.228Z,25.3
2022-08-20T12:52:00.503Z,25.3
2022-08-20T12:53:01.394Z,25.3
2022-08-20T12:54:00.233Z,24.5
2022-08-20T12:55:01.060Z,24.5
2022-08-20T12:56:03.389Z,24.5
2022-08-20T12:57:00.812Z,24.5
2022-08-20T12:58:02.143Z,24.5
2022-08-20T12:59:00.235Z,25.8
2022-08-20T13:00:06.062Z,25.8
2022-08-20T13:01:00.327Z,25.8
2022-08-20T13:02:09.264Z,25.8
2022-08-20T13:03:02.762Z,25.8
2022-08-20T13:04:00.232Z,25.3
2022-08-20T13:05:04.923Z,25.3
2022-08-20T13:06:00.595Z,25.3
2022-08-20T13:07:01.775Z,25.3
2022-08-20T13:08:01.267Z,25.3
2022-08-20T13:09:00.303Z,25.2
2022-08-20T13:10:01.072Z,25.2
2022-08-20T13:11:00.241Z,25.2
2022-08-20T13:12:00.254Z,25.2
2022-08-20T13:13:00.571Z,25.2
2022-08-20T13:14:00.325Z,23.4
2022-08-20T13:15:00.278Z,23.4
2022-08-20T13:16:00.247Z,23.4
2022-08-20T13:17:01.122Z,23.4
2022-08-20T13:18:02.034Z,23.4